Harrison, Michigan
Current Conditions -  °F | °C
As of 7:22 AM on Thursday 18 Dec 2014 (Local Time) from KHTL Reporting Station
Overcast Overcast  
Wind Chill: 17°   Ceiling: 700
Heat Index: 24°   Visibility: 10mi
Dew Point: 21°   Wind: 6mph
Humidity: 88%   Direction: NA
Pressure: 30.16"   Gusts: NA
Location:  44.02°N, 84.8°W
Report Text: KHTL 181222Z AUTO VRB05KT 10SM OVC007 M04/M06 A3016 RMK AO2 T10441061
Loading
Personal Weather Stations






























Interactive Weather Map New forecast layout! Learn more

10-Day Weather Forecast

Advertisements
Track Severe Weather on mobile